Friday, May 06, 2016
16:51 UTC
  |  Log In   |  Register Free
Airport Search:

Ormond Beach Municipal Airport
(KOMN)

FAA data valid effective Mar 31 2016 - May 26 2016 (unless otherwise noted).

 
 
 
 
 
 
 
 
 
 
 
 
 
 
Current Aviation Weather for KOMN

Weather Summary


The most recent METAR observation for OMN was updated at: 12:50 UTC
METAR for KOMN is not available. Closest METAR is for KDAB
KOMN  (most recent observation was updatred at 61:55 UTC)
061550Z 29008KT 10SM SKC 20/06 A2990

KDAB  (7.8 nm NW)   (most recent observation was updated at 61:55 UTC)
061553Z 28008G15KT 10SM FEW250 22/06 A2990 RMK AO2 SLP123 T02220056

KFIN  (11.1 nm SE)   (most recent observation was updated at 61:55 UTC)
061550Z 27011G17KT 10SM CLR 20/07 A2990

TAF for KOMN is not available.
KDAB  (7.8 nm NW)   (most recent observation was updatred at 61:60 UTC)
AMD 061601Z 0616/0712 28011KT P6SM FEW250 FM062030 03014KT P6SM FEW060 FM070000 26005KT P6SM SKC


KSFB  (32.1 nm NE)   (most recent observation was updatred at 61:12 UTC)
061120Z 0612/0712 31008KT P6SM FEW250 FM061400 31011KT P6SM FEW040 FM061700 30013G19KT P6SM FEW050 FM062300 30009KT P6SM SKC FM070200 28004KT P6SM SKC


GlobalAir.com is loading additional information.
 Current Weather at OMN
66.0 F° (19.0 C°)

West winds at 9.2 mph
Pressure:
29.90 in
Humidity:
46%
Wind:
West at 9.2 mph
Dew Point:
44.6 F° (7.0 C°)
Visibility:
10.00 mi
OMN NOAA Radar




Find All Airport Services Find A Hotel Find A Rental Car Find A Golf Course Find A Restaurant $100 Hamburger



Airport Weather Forecast for KOMN

Translated METAR for KOMN (1550 UTC)
METAR:
KOMN 061550Z 29008KT 10SM SKC 20/06 A2990
Conditions at:
KOMN (Ormond Beach Muni, FL) observed 1550 UTC 06 May 2016
Temperature:
20°C (68°F)
Dewpoint:
6°C (42.8°F) [RH = 40]
Pressure:
29.9 inches Hg (1012.5 mb)
Winds:
from the WNW (290 degrees) at 9.2 mph (8 knots: 4.1 m/s)
Visibility:
10 mile(s)
Ceiling:
at least 12,000 feet AGL
Clouds:
Clear Skies
Remarks:

Translated TAF for KDAB (Daytona Beach Intl, FL) (1601 UTC)
TAF text:
KDAB 061601Z 0616/0712 28011KT P6SM FEW250
Forecast period:
Friday May 06 2016 16:00 UTC - Saturday May 07 2016 12:00 UTC
Forecast type:
FROM: standard forecast or significant change
Winds:
from the W (280 degrees) at 12.7 mph (11 knots: 5.7 m/s)
Visibility:
6 or more mile(s) (9.7+ km)
Ceiling:
at least 12,000 feet AGL
Clouds:
Few Clouds at 25,000 feet AGL
Weather:
no significant weather observed at this time
TAF text:
FM062030 03014KT P6SM FEW060
Forecast period:
Friday May 06 2016 20:30 UTC - Saturday May 07 2016 00:00 UTC
Forecast type:
FROM: standard forecast or significant change
Winds:
from the NNE (030 degrees) at 16.1 mph (14 knots: 7.2 m/s)
Visibility:
6 or more mile(s) (9.7+ km)
Ceiling:
at least 12,000 feet AGL
Clouds:
Few Clouds at 6,000 feet AGL
Weather:
no significant weather observed at this time
TAF text:
FM070000 26005KT P6SM SKC
Forecast period:
Saturday May 07 2016 00:00 UTC - Saturday May 07 2016 12:00 UTC
Forecast type:
FROM: standard forecast or significant change
Winds:
from the W (260 degrees) at 5.8 mph (5 knots: 2.6 m/s)
Visibility:
6 or more mile(s) (9.7+ km)
Ceiling:
at least 12,000 feet AGL
Clouds:
Clear Skies
Weather:
no significant weather observed at this time
FBO's on the Field
FBO Company Facility Photos Services Transportation Aviation Fuel Prices: Prices include tax
Catering Weather Repair Courtesy Rental Type 100LL JetA JetA+ MOGAS 8087
 
Sunrise Aviation

Currently rated 5 by 3 people
FS:Shell
Last Updated: Apr-01
Login to update fuel prices
SS:
Contact Sunrise AviationMore FBO Information
 
Add another FBO Facility Photos Catering Weather Repair Courtesy Rental Type 100LL JetA JetA+ MOGAS 8087
Services Transportation Aviation Fuel Prices: Prices include tax


model-print
model-print
model-print
model-print